createdAt,value
2024-04-23T00:00:13.671Z,2.04
2024-04-23T00:01:15.508Z,2.02
2024-04-23T00:02:17.231Z,1.95
2024-04-23T00:03:19.044Z,1.94
2024-04-23T00:04:20.940Z,1.96
2024-04-23T00:05:22.675Z,1.68
2024-04-23T00:06:24.457Z,1.52
2024-04-23T00:07:26.151Z,1.57
2024-04-23T00:08:27.823Z,1.56
2024-04-23T00:09:29.974Z,1.57
2024-04-23T00:10:31.779Z,1.60
2024-04-23T00:11:33.559Z,1.59
2024-04-23T00:12:35.254Z,1.56
2024-04-23T00:13:36.985Z,1.60
2024-04-23T00:14:38.653Z,1.62
2024-04-23T00:15:40.413Z,1.60
2024-04-23T00:16:42.272Z,1.60
2024-04-23T00:17:44.195Z,1.61
2024-04-23T00:18:46.094Z,1.62
2024-04-23T00:19:47.884Z,1.63
2024-04-23T00:20:49.662Z,1.63
2024-04-23T00:21:51.419Z,1.66
2024-04-23T00:22:53.111Z,1.67
2024-04-23T00:23:54.807Z,1.68
2024-04-23T00:24:56.539Z,1.67
2024-04-23T00:25:58.315Z,1.65
2024-04-23T00:27:01.416Z,1.70
2024-04-23T00:28:03.171Z,1.73
2024-04-23T00:29:05.002Z,1.79
2024-04-23T00:30:07.441Z,1.82
2024-04-23T00:31:09.112Z,1.85
2024-04-23T00:32:10.853Z,1.81
2024-04-23T00:33:12.768Z,1.81
2024-04-23T00:34:14.599Z,1.77
2024-04-23T00:35:16.372Z,1.72
2024-04-23T00:36:18.088Z,1.66
2024-04-23T00:37:19.864Z,1.52
2024-04-23T00:38:21.602Z,1.54
2024-04-23T00:39:23.805Z,1.43
2024-04-23T00:40:25.574Z,1.42
2024-04-23T00:41:27.301Z,1.45
2024-04-23T00:42:29.061Z,1.47
2024-04-23T00:43:30.816Z,1.47
2024-04-23T00:44:32.580Z,1.47
2024-04-23T00:45:41.109Z,1.38
2024-04-23T00:46:44.067Z,1.18
2024-04-23T00:47:46.497Z,1.00
2024-04-23T00:48:48.232Z,0.87
2024-04-23T00:49:50.772Z,0.75
2024-04-23T00:50:53.234Z,0.67
2024-04-23T00:51:55.651Z,0.59
2024-04-23T00:52:58.039Z,0.59
2024-04-23T00:54:00.310Z,0.56
2024-04-23T00:55:02.108Z,0.49
2024-04-23T00:56:04.894Z,0.49
2024-04-23T00:57:07.187Z,0.67
2024-04-23T00:58:09.133Z,0.77
2024-04-23T00:59:14.049Z,0.87
2024-04-23T01:00:15.985Z,0.90
2024-04-23T01:01:17.769Z,0.96
2024-04-23T01:02:19.829Z,1.04
2024-04-23T01:03:22.607Z,1.11
2024-04-23T01:04:24.707Z,1.16
2024-04-23T01:05:26.474Z,1.17
2024-04-23T01:06:28.221Z,1.20
2024-04-23T01:07:30.063Z,1.22
2024-04-23T01:08:31.905Z,1.20
2024-04-23T01:09:33.987Z,1.19
2024-04-23T01:10:35.798Z,1.18
2024-04-23T01:11:37.892Z,1.18
2024-04-23T01:12:39.784Z,1.19
2024-04-23T01:13:41.815Z,1.16
2024-04-23T01:14:46.175Z,1.11
2024-04-23T01:15:50.402Z,1.11
2024-04-23T01:16:52.333Z,1.07
2024-04-23T01:18:00.625Z,1.10
2024-04-23T01:19:04.960Z,1.10
2024-04-23T01:20:13.266Z,1.11
2024-04-23T01:21:19.700Z,0.90
2024-04-23T01:22:21.364Z,0.82
2024-04-23T01:23:29.531Z,0.79
2024-04-23T01:24:37.659Z,0.82
2024-04-23T01:25:43.187Z,0.82
2024-04-23T01:26:45.342Z,0.86
2024-04-23T01:27:49.083Z,0.90
2024-04-23T01:28:51.254Z,0.97
2024-04-23T01:29:53.425Z,0.92
2024-04-23T01:30:55.319Z,0.89
2024-04-23T01:31:59.684Z,0.91
2024-04-23T01:33:03.489Z,0.97
2024-04-23T01:34:06.557Z,1.02
2024-04-23T01:35:10.108Z,1.00
2024-04-23T01:36:12.199Z,1.03
2024-04-23T01:37:14.907Z,1.03
2024-04-23T01:38:16.864Z,1.06
2024-04-23T01:39:18.710Z,1.08
2024-04-23T01:40:20.872Z,1.08
2024-04-23T01:41:22.715Z,1.09
2024-04-23T01:42:25.011Z,1.09
2024-04-23T01:43:27.306Z,1.15
2024-04-23T01:44:30.040Z,1.17
2024-04-23T01:45:32.126Z,1.17
2024-04-23T01:46:33.992Z,1.19
2024-04-23T01:47:35.990Z,1.17
2024-04-23T01:48:38.156Z,1.16
2024-04-23T01:49:41.302Z,1.19
2024-04-23T01:50:43.122Z,1.22
2024-04-23T01:51:45.420Z,1.20
2024-04-23T01:52:47.135Z,1.19
2024-04-23T01:53:48.933Z,1.23
2024-04-23T01:54:51.081Z,1.17
2024-04-23T01:55:53.326Z,0.98
2024-04-23T01:56:55.370Z,0.93
2024-04-23T01:57:57.216Z,0.90
2024-04-23T01:58:58.973Z,0.96
2024-04-23T02:00:07.185Z,0.96
2024-04-23T02:01:10.506Z,1.00
2024-04-23T02:02:13.002Z,1.04
2024-04-23T02:03:16.256Z,1.02
2024-04-23T02:04:19.381Z,1.01
2024-04-23T02:05:21.511Z,1.03
2024-04-23T02:06:23.655Z,1.01
2024-04-23T02:07:26.136Z,1.02
2024-04-23T02:08:27.859Z,1.03
2024-04-23T02:09:30.219Z,1.06
2024-04-23T02:10:32.081Z,1.11
2024-04-23T02:11:35.267Z,1.11
2024-04-23T02:12:37.717Z,1.14
2024-04-23T02:13:39.670Z,1.09
2024-04-23T02:14:42.364Z,1.12
2024-04-23T02:15:44.053Z,1.15
2024-04-23T02:16:46.510Z,1.15
2024-04-23T02:17:48.312Z,1.18
2024-04-23T02:18:50.172Z,1.20
2024-04-23T02:19:51.941Z,1.18
2024-04-23T02:20:53.699Z,1.14
2024-04-23T02:21:55.507Z,1.09
2024-04-23T02:22:57.326Z,1.03
2024-04-23T02:23:59.199Z,1.03
2024-04-23T02:25:01.079Z,1.09
2024-04-23T02:26:02.787Z,1.10
2024-04-23T02:27:04.677Z,1.11
2024-04-23T02:28:06.561Z,1.13
2024-04-23T02:29:08.174Z,1.16
2024-04-23T02:30:10.176Z,1.16
2024-04-23T02:31:12.657Z,1.20
2024-04-23T02:32:14.337Z,1.19
2024-04-23T02:33:16.139Z,1.19
2024-04-23T02:34:17.868Z,1.20
2024-04-23T02:35:19.585Z,1.22
2024-04-23T02:36:21.249Z,1.19
2024-04-23T02:37:22.918Z,1.19
2024-04-23T02:38:24.641Z,1.21
2024-04-23T02:39:26.423Z,1.11
2024-04-23T02:40:28.124Z,1.12
2024-04-23T02:41:29.793Z,1.15
2024-04-23T02:42:31.497Z,1.15
2024-04-23T02:43:33.219Z,1.15
2024-04-23T02:44:34.958Z,1.13
2024-04-23T02:45:36.685Z,1.15
2024-04-23T02:46:38.439Z,1.18
2024-04-23T02:47:40.187Z,1.16
2024-04-23T02:48:41.928Z,1.16
2024-04-23T02:49:43.695Z,1.09
2024-04-23T02:50:45.374Z,1.07
2024-04-23T02:51:48.849Z,1.05
2024-04-23T02:52:50.590Z,1.06
2024-04-23T02:53:52.286Z,1.04
2024-04-23T02:54:53.923Z,1.04
2024-04-23T02:55:55.772Z,1.05
2024-04-23T02:56:57.477Z,1.01
2024-04-23T02:57:59.260Z,0.97
2024-04-23T02:59:00.970Z,0.98
2024-04-23T03:00:02.718Z,0.97
2024-04-23T03:01:04.717Z,0.96
2024-04-23T03:02:08.306Z,0.92
2024-04-23T03:03:10.220Z,0.86
2024-04-23T03:04:12.245Z,0.80
2024-04-23T03:05:13.964Z,0.81
2024-04-23T03:06:15.697Z,0.78
2024-04-23T03:07:17.406Z,0.76
2024-04-23T03:08:19.146Z,0.80
2024-04-23T03:09:20.848Z,0.78
2024-04-23T03:10:22.695Z,0.78
2024-04-23T03:11:24.409Z,0.78
2024-04-23T03:12:26.530Z,0.78
2024-04-23T03:13:28.322Z,0.73
2024-04-23T03:14:30.028Z,0.72
2024-04-23T03:15:31.737Z,0.74
2024-04-23T03:16:33.499Z,0.70
2024-04-23T03:17:35.456Z,0.64
2024-04-23T03:18:37.218Z,0.65
2024-04-23T03:19:39.032Z,0.64
2024-04-23T03:20:40.730Z,0.60
2024-04-23T03:21:55.884Z,0.55
2024-04-23T03:22:57.831Z,0.47
2024-04-23T03:23:59.519Z,0.40
2024-04-23T03:25:01.204Z,0.34
2024-04-23T03:26:02.974Z,0.24
2024-04-23T03:27:04.760Z,0.28
2024-04-23T03:28:06.580Z,0.33
2024-04-23T03:29:08.407Z,0.41
2024-04-23T03:30:10.540Z,0.48
2024-04-23T03:31:12.222Z,0.49
2024-04-23T03:32:14.047Z,0.54
2024-04-23T03:33:15.911Z,0.57
2024-04-23T03:34:17.707Z,0.55
2024-04-23T03:35:19.467Z,0.58
2024-04-23T03:36:21.136Z,0.62
2024-04-23T03:37:22.962Z,0.65
2024-04-23T03:38:24.671Z,0.66
2024-04-23T03:39:26.598Z,0.66
2024-04-23T03:40:28.400Z,0.72
2024-04-23T03:41:30.448Z,0.77
2024-04-23T03:42:32.269Z,0.78
2024-04-23T03:43:34.033Z,0.79
2024-04-23T03:44:38.247Z,0.81
2024-04-23T03:45:41.447Z,0.81
2024-04-23T03:46:43.195Z,0.86
2024-04-23T03:47:44.950Z,0.84
2024-04-23T03:48:46.656Z,0.86
2024-04-23T03:49:48.453Z,0.87
2024-04-23T03:50:50.122Z,0.89
2024-04-23T03:51:51.824Z,0.91
2024-04-23T03:52:53.499Z,0.89
2024-04-23T03:53:55.305Z,0.90
2024-04-23T03:54:57.029Z,0.94
2024-04-23T03:55:58.847Z,0.97
2024-04-23T03:57:00.617Z,0.97
2024-04-23T03:58:02.345Z,0.94
2024-04-23T03:59:04.075Z,0.92
2024-04-23T04:00:06.745Z,0.94
2024-04-23T04:01:08.511Z,0.95
2024-04-23T04:02:10.325Z,0.96
2024-04-23T04:03:12.032Z,0.97
2024-04-23T04:04:13.717Z,0.99
2024-04-23T04:05:15.439Z,0.97
2024-04-23T04:06:17.129Z,0.98
2024-04-23T04:07:18.879Z,1.01
2024-04-23T04:08:20.587Z,1.05
2024-04-23T04:09:22.303Z,1.06
2024-04-23T04:10:23.949Z,1.09
2024-04-23T04:11:25.886Z,1.10
2024-04-23T04:12:27.677Z,1.14
2024-04-23T04:13:29.411Z,1.14
2024-04-23T04:14:31.124Z,1.19
2024-04-23T04:15:32.851Z,1.18
2024-04-23T04:16:35.892Z,1.19
2024-04-23T04:17:38.275Z,1.21
2024-04-23T04:18:40.214Z,1.23
2024-04-23T04:19:41.991Z,1.23
2024-04-23T04:20:43.696Z,1.26
2024-04-23T04:21:45.427Z,1.31
2024-04-23T04:22:47.142Z,1.34
2024-04-23T04:23:48.921Z,1.35
2024-04-23T04:24:50.684Z,1.38
2024-04-23T04:25:52.476Z,1.42
2024-04-23T04:26:54.290Z,1.42
2024-04-23T04:27:56.024Z,1.43
2024-04-23T04:28:57.813Z,1.44
2024-04-23T04:29:59.531Z,1.43
2024-04-23T04:31:01.258Z,1.43
2024-04-23T04:32:03.326Z,1.45
2024-04-23T04:33:05.439Z,1.46
2024-04-23T04:34:07.291Z,1.47
2024-04-23T04:35:09.062Z,1.49
2024-04-23T04:36:10.793Z,1.53
2024-04-23T04:37:12.568Z,1.56
2024-04-23T04:38:14.483Z,1.62
2024-04-23T04:39:16.252Z,1.65
2024-04-23T04:40:17.987Z,1.63
2024-04-23T04:41:19.801Z,1.65
2024-04-23T04:42:21.523Z,1.69
2024-04-23T04:43:23.253Z,1.71
2024-04-23T04:44:24.990Z,1.74
2024-04-23T04:45:26.683Z,1.78
2024-04-23T04:46:28.497Z,1.84
2024-04-23T04:47:30.400Z,1.90
2024-04-23T04:48:32.255Z,1.91
2024-04-23T04:49:34.029Z,1.94
2024-04-23T04:50:36.002Z,1.97
2024-04-23T04:51:37.783Z,1.98
2024-04-23T04:52:39.530Z,2.00
2024-04-23T04:53:41.352Z,2.01
2024-04-23T04:54:43.093Z,2.04
2024-04-23T04:55:44.938Z,2.02
2024-04-23T04:56:46.834Z,2.03
2024-04-23T04:57:48.607Z,2.05
2024-04-23T04:58:50.445Z,2.07
2024-04-23T04:59:52.106Z,2.03
2024-04-23T05:00:53.911Z,1.91
2024-04-23T05:01:55.802Z,1.93
2024-04-23T05:02:57.532Z,1.98
2024-04-23T05:03:59.329Z,2.01
2024-04-23T05:05:01.139Z,2.07
2024-04-23T05:06:02.962Z,2.15
2024-04-23T05:07:04.697Z,2.19
2024-04-23T05:08:07.000Z,2.24
2024-04-23T05:09:08.793Z,2.24
2024-04-23T05:10:10.554Z,2.26
2024-04-23T05:11:12.385Z,2.26
2024-04-23T05:12:17.880Z,2.30
2024-04-23T05:13:19.901Z,2.36
2024-04-23T05:14:21.659Z,2.37
2024-04-23T05:15:23.367Z,2.42
2024-04-23T05:16:25.035Z,2.42
2024-04-23T05:17:26.904Z,2.44
2024-04-23T05:18:28.766Z,2.44
2024-04-23T05:19:30.568Z,2.46
2024-04-23T05:20:32.694Z,2.37
2024-04-23T05:21:34.398Z,2.34
2024-04-23T05:22:36.141Z,2.36
2024-04-23T05:23:38.054Z,2.39
2024-04-23T05:24:39.962Z,2.45
2024-04-23T05:25:41.903Z,2.52
2024-04-23T05:26:43.681Z,2.54
2024-04-23T05:27:45.446Z,2.57
2024-04-23T05:28:47.318Z,2.60
2024-04-23T05:29:49.220Z,2.60
2024-04-23T05:30:51.023Z,2.63
2024-04-23T05:31:52.850Z,2.67
2024-04-23T05:32:54.676Z,2.68
2024-04-23T05:33:56.711Z,2.67
2024-04-23T05:34:58.472Z,2.65
2024-04-23T05:36:00.233Z,2.67
2024-04-23T05:37:01.963Z,2.70
2024-04-23T05:38:03.827Z,2.71
2024-04-23T05:39:05.666Z,2.63
2024-04-23T05:40:07.896Z,2.66
2024-04-23T05:41:09.746Z,2.72
2024-04-23T05:42:11.727Z,2.77
2024-04-23T05:43:13.456Z,2.77
2024-04-23T05:44:15.103Z,2.82
2024-04-23T05:45:17.039Z,2.84
2024-04-23T05:46:19.115Z,2.88
2024-04-23T05:47:21.049Z,2.92
2024-04-23T05:49:00.771Z,2.99
2024-04-23T05:50:58.674Z,3.06
2024-04-23T05:52:56.706Z,3.08
2024-04-23T05:54:54.830Z,3.19
2024-04-23T05:56:15.368Z,3.19
2024-04-23T05:57:17.333Z,3.20
2024-04-23T05:58:19.294Z,3.13
2024-04-23T05:59:21.081Z,3.19
2024-04-23T06:00:23.510Z,3.23
2024-04-23T06:01:25.269Z,3.26
2024-04-23T06:02:26.974Z,3.31
2024-04-23T06:03:28.688Z,3.33
2024-04-23T06:04:30.471Z,3.37
2024-04-23T06:05:32.536Z,3.39
2024-04-23T06:06:34.301Z,3.40
2024-04-23T06:07:36.411Z,3.48
2024-04-23T06:08:38.693Z,3.53
2024-04-23T06:09:40.434Z,3.59
2024-04-23T06:10:42.251Z,3.58
2024-04-23T06:11:44.129Z,3.60
2024-04-23T06:12:49.651Z,3.67
2024-04-23T06:14:06.914Z,3.75
2024-04-23T06:15:08.856Z,3.80
2024-04-23T06:16:11.422Z,3.84
2024-04-23T06:17:16.103Z,3.87
2024-04-23T06:18:17.986Z,3.87
2024-04-23T06:19:19.982Z,3.88
2024-04-23T06:20:21.716Z,3.88
2024-04-23T06:21:23.469Z,3.85
2024-04-23T06:22:29.926Z,3.82
2024-04-23T06:23:31.705Z,3.83
2024-04-23T06:24:33.349Z,3.85
2024-04-23T06:25:36.004Z,3.83
2024-04-23T06:26:38.629Z,3.85
2024-04-23T06:27:40.717Z,3.89
2024-04-23T06:28:42.637Z,3.88
2024-04-23T06:29:45.280Z,3.85
2024-04-23T06:30:47.040Z,3.78
2024-04-23T06:31:51.678Z,3.77
2024-04-23T06:32:53.551Z,3.79
2024-04-23T06:33:55.275Z,3.82
2024-04-23T06:34:57.097Z,3.79
2024-04-23T06:35:58.938Z,3.77
2024-04-23T06:37:00.598Z,3.75
2024-04-23T06:38:02.435Z,3.74
2024-04-23T06:39:04.269Z,3.72
2024-04-23T06:40:07.000Z,3.70
2024-04-23T06:41:08.777Z,3.69
2024-04-23T06:42:10.648Z,3.71
2024-04-23T06:43:14.147Z,3.72
2024-04-23T06:44:16.939Z,3.76
2024-04-23T06:45:18.683Z,3.78
2024-04-23T06:46:20.404Z,3.75
2024-04-23T06:47:22.169Z,3.71
2024-04-23T06:48:23.856Z,3.73
2024-04-23T06:49:25.979Z,3.79
2024-04-23T06:50:27.718Z,3.81
2024-04-23T06:51:29.485Z,3.82
2024-04-23T06:52:31.347Z,3.85
2024-04-23T06:53:33.141Z,3.79
2024-04-23T06:54:34.864Z,3.79
2024-04-23T06:55:36.550Z,3.83
2024-04-23T06:56:38.366Z,3.86
2024-04-23T06:57:40.141Z,3.91
2024-04-23T06:58:41.930Z,3.93
2024-04-23T06:59:43.732Z,3.94
2024-04-23T07:00:45.470Z,3.96
2024-04-23T07:01:47.364Z,3.92
2024-04-23T07:02:49.167Z,3.90
2024-04-23T07:03:51.008Z,3.88
2024-04-23T07:04:52.838Z,3.88
2024-04-23T07:05:54.658Z,3.88
2024-04-23T07:06:56.376Z,3.89
2024-04-23T07:07:58.169Z,3.88
2024-04-23T07:09:00.007Z,3.91
2024-04-23T07:10:01.919Z,3.96
2024-04-23T07:11:03.737Z,4.01
2024-04-23T07:12:06.219Z,4.00
2024-04-23T07:13:08.023Z,3.98
2024-04-23T07:14:09.840Z,3.97
2024-04-23T07:15:11.872Z,4.00
2024-04-23T07:16:14.111Z,4.02
2024-04-23T07:17:15.954Z,4.01
2024-04-23T07:18:17.803Z,4.08
2024-04-23T07:19:19.579Z,4.08
2024-04-23T07:20:21.416Z,4.08
2024-04-23T07:21:23.120Z,4.08
2024-04-23T07:22:24.988Z,4.11
2024-04-23T07:23:26.661Z,4.18
2024-04-23T07:24:28.343Z,4.16
2024-04-23T07:25:30.178Z,4.19
2024-04-23T07:26:32.075Z,4.23
2024-04-23T07:27:33.857Z,4.27
2024-04-23T07:28:35.653Z,4.29
2024-04-23T07:29:37.428Z,4.32
2024-04-23T07:30:39.173Z,4.31
2024-04-23T07:31:40.981Z,4.40
2024-04-23T07:32:42.829Z,4.45
2024-04-23T07:33:44.738Z,4.49
2024-04-23T07:34:46.606Z,4.47
2024-04-23T07:35:48.733Z,4.43
2024-04-23T07:36:50.480Z,4.46
2024-04-23T07:37:52.324Z,4.49
2024-04-23T07:38:54.115Z,4.56
2024-04-23T07:39:55.939Z,4.58
2024-04-23T07:40:57.659Z,4.60
2024-04-23T07:41:59.422Z,4.64
2024-04-23T07:43:01.283Z,4.70
2024-04-23T07:44:03.202Z,4.72
2024-04-23T07:45:05.703Z,4.74
2024-04-23T07:46:07.456Z,4.79
2024-04-23T07:47:09.375Z,4.78
2024-04-23T07:48:11.434Z,4.86
2024-04-23T07:49:13.260Z,4.91
2024-04-23T07:50:15.135Z,4.99
2024-04-23T07:51:16.941Z,5.08
2024-04-23T07:52:19.273Z,5.14
2024-04-23T07:53:21.012Z,5.22
2024-04-23T07:54:22.854Z,5.32
2024-04-23T07:55:24.634Z,5.37
2024-04-23T07:56:26.320Z,5.45
2024-04-23T07:57:28.032Z,5.43
2024-04-23T07:58:29.830Z,5.59
2024-04-23T07:59:31.568Z,5.66
2024-04-23T08:00:33.323Z,5.56
2024-04-23T08:01:35.156Z,5.56
2024-04-23T08:02:37.060Z,5.54
2024-04-23T08:03:38.801Z,5.61
2024-04-23T08:04:40.579Z,5.69
2024-04-23T08:05:42.411Z,5.69
2024-04-23T08:06:44.191Z,5.69
2024-04-23T08:07:45.870Z,5.68
2024-04-23T08:08:47.639Z,5.75
2024-04-23T08:09:49.367Z,5.82
2024-04-23T08:10:51.249Z,5.80
2024-04-23T08:11:53.093Z,5.93
2024-04-23T08:12:54.920Z,6.06
2024-04-23T08:13:56.631Z,6.18
2024-04-23T08:14:58.287Z,6.27
2024-04-23T08:16:00.070Z,6.29
2024-04-23T08:17:01.932Z,6.29
2024-04-23T08:18:04.209Z,6.25
2024-04-23T08:19:06.155Z,6.28
2024-04-23T08:20:08.271Z,6.37
2024-04-23T08:21:10.066Z,6.39
2024-04-23T08:22:11.868Z,6.38
2024-04-23T08:23:13.625Z,6.36
2024-04-23T08:24:15.313Z,6.41
2024-04-23T08:25:17.086Z,6.39
2024-04-23T08:26:18.883Z,6.39
2024-04-23T08:27:22.394Z,6.43
2024-04-23T08:28:24.149Z,6.43
2024-04-23T08:29:25.887Z,6.48
2024-04-23T08:30:27.684Z,6.59
2024-04-23T08:31:29.468Z,6.70
2024-04-23T08:32:31.310Z,6.74
2024-04-23T08:33:33.227Z,6.78
2024-04-23T08:34:35.010Z,6.84
2024-04-23T08:35:36.743Z,6.91
2024-04-23T08:36:38.495Z,6.95
2024-04-23T08:37:40.241Z,7.02
2024-04-23T08:38:42.088Z,7.05
2024-04-23T08:39:43.866Z,7.12
2024-04-23T08:40:45.620Z,7.17
2024-04-23T08:41:48.632Z,7.27
2024-04-23T08:42:53.431Z,7.32
2024-04-23T08:44:08.601Z,7.38
2024-04-23T08:45:11.842Z,7.34
2024-04-23T08:46:13.668Z,7.30
2024-04-23T08:47:16.965Z,7.32
2024-04-23T08:48:20.054Z,7.27
2024-04-23T08:49:22.282Z,7.31
2024-04-23T08:50:24.815Z,7.26
2024-04-23T08:51:27.018Z,7.25
2024-04-23T08:52:30.180Z,7.23
2024-04-23T08:53:33.835Z,7.22
2024-04-23T08:54:35.686Z,7.18
2024-04-23T08:55:45.083Z,7.21
2024-04-23T08:56:47.141Z,7.32
2024-04-23T08:57:50.162Z,7.41
2024-04-23T08:58:52.853Z,7.47
2024-04-23T08:59:55.197Z,7.38
2024-04-23T09:00:58.154Z,7.40
2024-04-23T09:02:02.965Z,7.43
2024-04-23T09:03:08.036Z,7.44
2024-04-23T09:04:10.454Z,7.44
2024-04-23T09:05:12.272Z,7.49
2024-04-23T09:06:14.461Z,7.53
2024-04-23T09:07:25.072Z,7.47
2024-04-23T09:08:33.525Z,7.53
2024-04-23T09:09:35.522Z,7.55
2024-04-23T09:10:37.322Z,7.58
2024-04-23T09:11:39.362Z,7.59
2024-04-23T09:12:42.089Z,7.59
2024-04-23T09:13:44.503Z,7.62
2024-04-23T09:14:46.332Z,7.66
2024-04-23T09:15:48.055Z,7.69
2024-04-23T09:16:50.037Z,7.78
2024-04-23T09:17:56.478Z,7.80
2024-04-23T09:18:58.286Z,7.87
2024-04-23T09:20:01.088Z,7.88
2024-04-23T09:21:04.087Z,7.94
2024-04-23T09:22:09.368Z,7.96
2024-04-23T09:23:11.502Z,7.98
2024-04-23T09:24:13.259Z,8.02
2024-04-23T09:25:15.903Z,8.09
2024-04-23T09:26:17.913Z,8.13
2024-04-23T09:27:20.495Z,8.19
2024-04-23T09:28:23.170Z,8.23
2024-04-23T09:29:29.865Z,8.28
2024-04-23T09:30:31.920Z,8.39
2024-04-23T09:31:37.682Z,8.52
2024-04-23T09:32:39.672Z,8.55
2024-04-23T09:33:52.518Z,8.49
2024-04-23T09:34:55.566Z,8.53
2024-04-23T09:36:05.127Z,8.50
2024-04-23T09:37:18.833Z,8.58
2024-04-23T09:38:20.639Z,8.64
2024-04-23T09:39:22.388Z,8.70
2024-04-23T09:40:24.527Z,8.78
2024-04-23T09:41:26.435Z,8.83
2024-04-23T09:42:28.239Z,8.89
2024-04-23T09:43:30.497Z,8.96
2024-04-23T09:44:32.273Z,9.07
2024-04-23T09:45:34.118Z,9.17
2024-04-23T09:46:36.000Z,9.14
2024-04-23T09:47:44.071Z,9.14
2024-04-23T09:48:46.004Z,9.21
2024-04-23T09:49:54.296Z,9.18
2024-04-23T09:51:03.649Z,9.16
2024-04-23T09:52:07.123Z,9.11
2024-04-23T09:53:08.886Z,9.14
2024-04-23T09:54:11.261Z,9.21
2024-04-23T09:55:17.183Z,9.20
2024-04-23T09:56:20.336Z,9.29
2024-04-23T09:57:22.043Z,9.33
2024-04-23T09:58:28.077Z,9.40
2024-04-23T09:59:31.286Z,9.50
2024-04-23T10:00:36.375Z,9.53
2024-04-23T10:01:41.978Z,9.51
2024-04-23T10:02:46.018Z,9.62
2024-04-23T10:03:52.447Z,9.76
2024-04-23T10:05:16.599Z,9.89
2024-04-23T10:06:22.468Z,9.95
2024-04-23T10:07:25.858Z,10.01
2024-04-23T10:08:48.720Z,10.01
2024-04-23T10:09:51.324Z,9.98
2024-04-23T10:10:55.043Z,9.93
2024-04-23T10:12:02.737Z,9.94
2024-04-23T10:13:06.948Z,9.87
2024-04-23T10:14:23.511Z,10.02
2024-04-23T10:15:36.590Z,10.04
2024-04-23T10:16:49.270Z,10.08
2024-04-23T10:18:21.680Z,10.24
2024-04-23T10:19:24.474Z,10.27
2024-04-23T10:20:31.861Z,10.27
2024-04-23T10:21:40.009Z,10.24
2024-04-23T10:22:42.700Z,10.18
2024-04-23T10:23:45.223Z,10.18
2024-04-23T10:24:47.528Z,10.22
2024-04-23T10:25:49.536Z,10.23
2024-04-23T10:26:52.104Z,10.20
2024-04-23T10:27:54.626Z,10.21
2024-04-23T10:28:57.246Z,10.25
2024-04-23T10:30:00.183Z,10.26
2024-04-23T10:31:02.196Z,10.27
2024-04-23T10:32:04.499Z,10.29
2024-04-23T10:33:09.311Z,10.20
2024-04-23T10:34:13.517Z,10.21
2024-04-23T10:35:16.450Z,10.25
2024-04-23T10:36:19.343Z,10.33
2024-04-23T10:37:21.942Z,10.36
2024-04-23T10:38:25.487Z,10.29
2024-04-23T10:39:28.921Z,10.29
2024-04-23T10:40:40.237Z,10.31
2024-04-23T10:41:48.079Z,10.33
2024-04-23T10:42:49.832Z,10.31
2024-04-23T10:43:53.858Z,10.30
2024-04-23T10:44:57.597Z,10.29
2024-04-23T10:45:59.313Z,10.25
2024-04-23T10:47:01.066Z,10.23
2024-04-23T10:48:08.287Z,10.26
2024-04-23T10:49:13.666Z,10.24
2024-04-23T10:50:27.919Z,10.25
2024-04-23T10:51:29.694Z,10.33
2024-04-23T10:52:31.561Z,10.34
2024-04-23T10:53:36.621Z,10.45
2024-04-23T10:54:38.847Z,10.52
2024-04-23T10:55:52.665Z,10.58
2024-04-23T10:57:02.008Z,10.69
2024-04-23T10:58:03.979Z,10.65
2024-04-23T10:59:10.367Z,10.73
2024-04-23T11:00:12.302Z,10.68
2024-04-23T11:01:24.719Z,10.70
2024-04-23T11:02:26.888Z,10.85
2024-04-23T11:03:30.649Z,10.90
2024-04-23T11:04:45.624Z,10.94
2024-04-23T11:05:48.974Z,10.88
2024-04-23T11:07:11.372Z,10.75
2024-04-23T11:08:21.526Z,10.79
2024-04-23T11:09:28.205Z,10.87
2024-04-23T11:10:47.539Z,11.00
2024-04-23T11:11:51.166Z,11.06
2024-04-23T11:13:02.013Z,11.03
2024-04-23T11:14:03.904Z,11.02
2024-04-23T11:15:14.718Z,11.13
2024-04-23T11:16:17.937Z,11.15
2024-04-23T11:17:20.553Z,11.23
2024-04-23T11:18:22.995Z,11.16
2024-04-23T11:19:24.934Z,11.12
2024-04-23T11:20:27.622Z,11.07
2024-04-23T11:21:29.635Z,11.02
2024-04-23T11:22:31.297Z,10.95
2024-04-23T11:23:36.090Z,10.99
2024-04-23T11:24:58.257Z,10.95
2024-04-23T11:26:01.235Z,10.94
2024-04-23T11:27:03.071Z,10.86
2024-04-23T11:28:06.074Z,10.86
2024-04-23T11:29:11.809Z,10.87
2024-04-23T11:30:16.336Z,10.88
2024-04-23T11:31:18.462Z,10.89
2024-04-23T11:32:20.243Z,10.90
2024-04-23T11:33:22.278Z,10.94
2024-04-23T11:34:24.517Z,11.00
2024-04-23T11:35:26.355Z,11.07
2024-04-23T11:36:28.737Z,11.05
2024-04-23T11:37:30.543Z,11.10
2024-04-23T11:38:44.629Z,11.14
2024-04-23T11:39:46.400Z,11.18
2024-04-23T11:40:48.726Z,11.23
2024-04-23T11:41:50.562Z,11.27
2024-04-23T11:42:52.271Z,11.20
2024-04-23T11:43:53.938Z,11.12
2024-04-23T11:45:02.621Z,11.11
2024-04-23T11:46:04.577Z,11.08
2024-04-23T11:47:09.907Z,11.03
2024-04-23T11:48:11.960Z,10.99
2024-04-23T11:49:13.877Z,10.98
2024-04-23T11:50:15.661Z,10.94
2024-04-23T11:51:17.429Z,10.92
2024-04-23T11:52:20.347Z,10.91
2024-04-23T11:53:22.592Z,10.83
2024-04-23T11:54:24.483Z,10.82
2024-04-23T11:55:26.282Z,10.80
2024-04-23T11:56:29.421Z,10.90
2024-04-23T11:57:31.190Z,11.02
2024-04-23T11:58:41.246Z,10.87
2024-04-23T11:59:43.456Z,10.93
2024-04-23T12:00:46.225Z,11.04
2024-04-23T12:01:48.333Z,11.20
2024-04-23T12:02:49.947Z,11.35
2024-04-23T12:03:53.711Z,11.50
2024-04-23T12:04:56.101Z,11.54
2024-04-23T12:05:58.407Z,11.62
2024-04-23T12:07:00.511Z,11.65
2024-04-23T12:08:03.187Z,11.65
2024-04-23T12:09:04.943Z,11.67
2024-04-23T12:10:07.345Z,11.64
2024-04-23T12:11:10.096Z,11.68
2024-04-23T12:12:17.262Z,11.77
2024-04-23T12:13:19.050Z,11.87
2024-04-23T12:14:20.909Z,11.93
2024-04-23T12:15:24.371Z,12.01
2024-04-23T12:16:26.362Z,12.08
2024-04-23T12:17:28.150Z,12.12
2024-04-23T12:18:30.026Z,12.17
2024-04-23T12:19:31.903Z,12.21
2024-04-23T12:20:33.682Z,12.27
2024-04-23T12:21:36.392Z,12.24
2024-04-23T12:22:38.255Z,12.25
2024-04-23T12:23:40.402Z,12.26
2024-04-23T12:24:42.156Z,12.30
2024-04-23T12:25:44.213Z,12.36
2024-04-23T12:26:47.030Z,12.35
2024-04-23T12:27:48.765Z,12.26
2024-04-23T12:28:52.962Z,12.12
2024-04-23T12:30:11.525Z,11.97
2024-04-23T12:31:13.228Z,11.88
2024-04-23T12:32:15.156Z,11.79
2024-04-23T12:33:17.251Z,11.70
2024-04-23T12:34:19.691Z,11.61
2024-04-23T12:35:21.675Z,11.55
2024-04-23T12:36:23.693Z,11.41
2024-04-23T12:37:26.045Z,11.32
2024-04-23T12:38:27.795Z,11.22
2024-04-23T12:39:31.241Z,11.15
2024-04-23T12:40:33.634Z,11.13
2024-04-23T12:41:35.495Z,11.16
2024-04-23T12:42:44.271Z,11.12
2024-04-23T12:43:51.807Z,11.22
2024-04-23T12:44:54.073Z,11.28
2024-04-23T12:45:55.828Z,11.36
2024-04-23T12:46:57.635Z,11.46
2024-04-23T12:47:59.425Z,11.57
2024-04-23T12:49:01.835Z,11.61
2024-04-23T12:50:04.168Z,11.62
2024-04-23T12:51:06.482Z,11.63
2024-04-23T12:52:08.286Z,11.72
2024-04-23T12:53:10.066Z,11.84
2024-04-23T12:54:12.099Z,11.87
2024-04-23T12:55:13.968Z,11.91
2024-04-23T12:56:15.778Z,11.96
2024-04-23T12:57:17.630Z,12.01
2024-04-23T12:58:19.426Z,11.97
2024-04-23T12:59:21.196Z,11.90
2024-04-23T13:00:23.049Z,11.86
2024-04-23T13:01:34.992Z,11.88
2024-04-23T13:02:44.138Z,11.88
2024-04-23T13:03:46.066Z,11.77
2024-04-23T13:04:47.934Z,11.73
2024-04-23T13:05:49.653Z,11.63
2024-04-23T13:06:51.337Z,11.58
2024-04-23T13:07:53.097Z,11.55
2024-04-23T13:08:54.780Z,11.57
2024-04-23T13:09:56.499Z,11.61
2024-04-23T13:10:58.206Z,11.64
2024-04-23T13:12:00.045Z,11.67
2024-04-23T13:13:01.777Z,11.77
2024-04-23T13:14:03.696Z,11.89
2024-04-23T13:15:05.662Z,12.02
2024-04-23T13:16:07.598Z,12.08
2024-04-23T13:17:09.416Z,12.08
2024-04-23T13:18:11.430Z,12.14
2024-04-23T13:19:14.138Z,12.22
2024-04-23T13:20:15.845Z,12.31
2024-04-23T13:21:17.573Z,12.37
2024-04-23T13:22:19.344Z,12.42
2024-04-23T13:23:21.071Z,12.41
2024-04-23T13:24:22.728Z,12.22
2024-04-23T13:25:24.456Z,12.22
2024-04-23T13:26:26.227Z,12.22
2024-04-23T13:27:27.981Z,12.26
2024-04-23T13:28:29.652Z,12.26
2024-04-23T13:29:31.442Z,12.13
2024-04-23T13:30:33.165Z,12.02
2024-04-23T13:31:34.894Z,11.94
2024-04-23T13:32:37.040Z,11.89
2024-04-23T13:33:39.170Z,11.85
2024-04-23T13:34:41.079Z,11.83
2024-04-23T13:35:42.839Z,11.81
2024-04-23T13:36:44.584Z,11.88
2024-04-23T13:37:46.532Z,11.90
2024-04-23T13:38:48.418Z,11.95
2024-04-23T13:39:50.126Z,12.05
2024-04-23T13:40:51.928Z,12.14
2024-04-23T13:41:53.716Z,12.19
2024-04-23T13:42:55.484Z,12.25
2024-04-23T13:43:57.232Z,12.27
2024-04-23T13:44:59.313Z,12.34
2024-04-23T13:46:01.062Z,12.43
2024-04-23T13:47:02.835Z,12.53
2024-04-23T13:48:05.076Z,12.53
2024-04-23T13:49:06.975Z,12.50
2024-04-23T13:50:11.180Z,12.42
2024-04-23T13:51:12.918Z,12.45
2024-04-23T13:52:14.627Z,12.46